Irving North's Hourly Summary for Wednesday, March 15, 2017
Hour Temp
(f)
RH
(%)
Solar Rad.
(MJ/m2)
Rainfall
(in)
Wind
(mph)
3/15/2017 12:00 AM 53 42 0 0 6.73
3/15/2017 1:00 AM 50 44 0 0 7.25
3/15/2017 2:00 AM 49 48 0 0 7
3/15/2017 3:00 AM 48 50 0 0 6.66
3/15/2017 4:00 AM 47 52 0 0 7.32
3/15/2017 5:00 AM 46 56 0 0 6.91
3/15/2017 6:00 AM 45 60 0 0 5.83
3/15/2017 7:00 AM 45 63 0.02 0 5.75
3/15/2017 8:00 AM 46 63 0.38 0 6.19
3/15/2017 9:00 AM 47 60 0.76 0 6.68
3/15/2017 10:00 AM 49 57 1.34 0 6.35
3/15/2017 11:00 AM 51 53 1.65 0 5.84
3/15/2017 12:00 PM 53 50 2.53 0 5.92
3/15/2017 1:00 PM 56 46 2.94 0 5.75
3/15/2017 2:00 PM 59 43 2.95 0 5.2
3/15/2017 3:00 PM 61 42 2.61 0 5.86
3/15/2017 4:00 PM 62 42 2.07 0 5.13
3/15/2017 5:00 PM 63 43 1.35 0 5.41
3/15/2017 6:00 PM 63 45 0.61 0 5.89
3/15/2017 7:00 PM 62 48 0.07 0 5.57
3/15/2017 8:00 PM 61 51 0 0 5.44
3/15/2017 9:00 PM 59 52 0 0 4.6
3/15/2017 10:00 PM 58 54 0 0 3.78
3/15/2017 11:00 PM 57 54 0 0 4.98
Data Summary 53 50 19.28 0.00 5.92